createdAt,value
2018-02-04T00:00:32.478Z,98638.55
2018-02-04T00:02:59.941Z,98640.67
2018-02-04T00:05:27.439Z,98643.18
2018-02-04T00:07:54.972Z,98645.30
2018-02-04T00:10:22.469Z,98644.87
2018-02-04T00:12:50.000Z,98646.57
2018-02-04T00:15:17.518Z,98638.55
2018-02-04T00:17:45.051Z,98643.20
2018-02-04T00:20:12.534Z,98652.45
2018-02-04T00:22:42.056Z,98657.09
2018-02-04T00:25:09.519Z,98645.27
2018-02-04T00:27:37.011Z,98659.61
2018-02-04T00:30:04.563Z,98660.05
2018-02-04T00:32:32.037Z,98655.01
2018-02-04T00:34:59.521Z,98655.86
2018-02-04T00:37:27.090Z,98666.00
2018-02-04T00:39:54.606Z,98665.58
2018-02-04T00:42:22.103Z,98666.41
2018-02-04T00:44:49.618Z,98673.13
2018-02-04T00:47:17.120Z,98679.08
2018-02-04T00:49:44.657Z,98676.98
2018-02-04T00:52:12.177Z,98678.67
2018-02-04T00:54:39.836Z,98684.58
2018-02-04T00:57:07.456Z,98686.25
2018-02-04T00:59:34.974Z,98686.67
2018-02-04T01:02:02.489Z,98683.32
2018-02-04T01:04:30.066Z,98689.64
2018-02-04T01:06:57.555Z,98683.75
2018-02-04T01:09:25.058Z,98692.61
2018-02-04T01:11:52.572Z,98689.63
2018-02-04T01:14:20.049Z,98701.88
2018-02-04T01:16:47.514Z,98691.75
2018-02-04T01:19:15.146Z,98695.52
2018-02-04T01:21:42.643Z,98705.26
2018-02-04T01:24:10.183Z,98702.28
2018-02-04T01:26:37.671Z,98705.69
2018-02-04T01:29:05.188Z,98704.85
2018-02-04T01:31:32.688Z,98706.53
2018-02-04T01:34:00.197Z,98715.39
2018-02-04T01:36:27.687Z,98705.25
2018-02-04T01:38:55.262Z,98710.31
2018-02-04T01:41:22.763Z,98708.22
2018-02-04T01:43:50.226Z,98709.05
2018-02-04T01:46:17.731Z,98712.43
2018-02-04T01:48:45.244Z,98711.99
2018-02-04T01:51:12.714Z,98709.47
2018-02-04T01:53:40.191Z,98724.66
2018-02-04T01:56:07.705Z,98720.45
2018-02-04T01:58:35.199Z,98716.23
2018-02-04T02:01:02.682Z,98718.77
2018-02-04T02:03:30.213Z,98714.97
2018-02-04T02:05:57.665Z,98719.19
2018-02-04T02:08:25.131Z,98724.23
2018-02-04T02:10:52.689Z,98722.13
2018-02-04T02:13:20.166Z,98728.05
2018-02-04T02:15:47.656Z,98726.77
2018-02-04T02:18:15.160Z,98728.45
2018-02-04T02:20:42.648Z,98732.23
2018-02-04T02:23:10.133Z,98736.05
2018-02-04T02:25:37.593Z,98738.56
2018-02-04T02:28:05.087Z,98748.67
2018-02-04T02:30:32.608Z,98755.41
2018-02-04T02:33:00.130Z,98756.23
2018-02-04T02:35:27.612Z,98755.83
2018-02-04T02:37:55.120Z,98757.09
2018-02-04T02:40:22.593Z,98763.41
2018-02-04T02:42:50.077Z,98768.45
2018-02-04T02:45:17.603Z,98772.25
2018-02-04T02:47:45.073Z,98773.49
2018-02-04T02:50:12.539Z,98769.71
2018-02-04T02:52:40.009Z,98781.06
2018-02-04T02:55:07.466Z,98785.28
2018-02-04T02:57:34.953Z,98794.13
2018-02-04T03:00:02.429Z,98790.73
2018-02-04T03:02:29.898Z,98792.42
2018-02-04T03:04:57.445Z,98802.11
2018-02-04T03:07:24.903Z,98794.06
2018-02-04T03:09:52.354Z,98799.13
2018-02-04T03:12:19.850Z,98801.68
2018-02-04T03:14:47.321Z,98809.25
2018-02-04T03:17:14.778Z,98807.56
2018-02-04T03:19:42.247Z,98806.70
2018-02-04T03:22:09.708Z,98809.64
2018-02-04T03:24:37.191Z,98816.40
2018-02-04T03:27:04.671Z,98817.21
2018-02-04T03:29:32.160Z,98821.46
2018-02-04T03:31:59.633Z,98814.75
2018-02-04T03:34:27.096Z,98830.34
2018-02-04T03:36:54.586Z,98834.95
2018-02-04T03:39:22.061Z,98835.80
2018-02-04T03:41:49.555Z,98849.27
2018-02-04T03:44:17.016Z,98851.35
2018-02-04T03:46:44.511Z,98844.63
2018-02-04T03:49:11.950Z,98855.17
2018-02-04T03:51:39.414Z,98853.44
2018-02-04T03:54:06.970Z,98854.72
2018-02-04T03:56:34.422Z,98861.48
2018-02-04T03:59:01.888Z,98864.41
2018-02-04T04:01:29.391Z,98868.19
2018-02-04T04:03:56.875Z,98862.70
2018-02-04T04:06:24.363Z,98877.45
2018-02-04T04:08:51.823Z,98871.55
2018-02-04T04:11:19.333Z,98869.00
2018-02-04T04:13:47.226Z,98883.77
2018-02-04T04:16:14.692Z,98885.88
2018-02-04T04:18:42.141Z,98889.68
2018-02-04T04:21:09.607Z,98891.77
2018-02-04T04:23:37.154Z,98887.13
2018-02-04T04:26:04.748Z,98900.21
2018-02-04T04:28:32.208Z,98899.33
2018-02-04T04:30:59.719Z,98902.24
2018-02-04T04:33:27.208Z,98902.28
2018-02-04T04:35:54.656Z,98904.37
2018-02-04T04:38:22.146Z,98906.48
2018-02-04T04:40:49.598Z,98915.39
2018-02-04T04:43:17.049Z,98915.00
2018-02-04T04:45:44.533Z,98924.25
2018-02-04T04:48:12.027Z,98923.45
2018-02-04T04:50:39.487Z,98920.91
2018-02-04T04:53:07.584Z,98923.86
2018-02-04T04:55:35.031Z,98928.48
2018-02-04T04:58:02.498Z,98938.19
2018-02-04T05:00:29.952Z,98936.55
2018-02-04T05:02:57.422Z,98945.36
2018-02-04T05:05:24.886Z,98945.35
2018-02-04T05:07:52.362Z,98950.38
2018-02-04T05:10:20.667Z,98949.08
2018-02-04T05:12:48.153Z,98949.16
2018-02-04T05:15:15.594Z,98957.52
2018-02-04T05:17:43.088Z,98967.25
2018-02-04T05:20:10.570Z,98961.35
2018-02-04T05:22:38.026Z,98966.40
2018-02-04T05:25:05.517Z,98970.61
2018-02-04T05:27:33.029Z,98974.81
2018-02-04T05:30:00.485Z,98984.16
2018-02-04T05:32:27.956Z,98986.23
2018-02-04T05:34:55.443Z,98997.66
2018-02-04T05:37:22.916Z,98999.31
2018-02-04T05:39:50.390Z,98990.47
2018-02-04T05:42:17.848Z,98999.73
2018-02-04T05:47:19.010Z,99002.67
2018-02-04T05:49:46.481Z,99004.02
2018-02-04T05:52:13.951Z,99007.73
2018-02-04T05:54:41.447Z,99010.26
2018-02-04T05:57:08.914Z,99014.04
2018-02-04T05:59:36.368Z,99022.05
2018-02-04T06:02:03.841Z,99032.17
2018-02-04T06:04:31.287Z,99031.72
2018-02-04T06:06:58.747Z,99033.87
2018-02-04T06:09:26.247Z,99042.28
2018-02-04T06:11:53.698Z,99048.16
2018-02-04T06:14:21.154Z,99049.49
2018-02-04T06:16:48.623Z,99060.00
2018-02-04T06:19:16.066Z,99050.69
2018-02-04T06:21:43.730Z,99063.78
2018-02-04T06:24:11.213Z,99069.26
2018-02-04T06:26:38.707Z,99067.17
2018-02-04T06:29:06.187Z,99072.19
2018-02-04T06:31:33.645Z,99073.06
2018-02-04T06:34:01.168Z,99082.34
2018-02-04T06:36:28.626Z,99084.03
2018-02-04T06:38:56.102Z,99096.26
2018-02-04T06:41:23.554Z,99086.98
2018-02-04T06:43:51.016Z,99096.28
2018-02-04T06:46:18.485Z,99102.58
2018-02-04T06:48:45.958Z,99098.78
2018-02-04T06:51:13.450Z,99106.38
2018-02-04T06:53:40.914Z,99109.36
2018-02-04T06:56:08.382Z,99102.19
2018-02-04T06:58:35.873Z,99105.99
2018-02-04T07:01:03.346Z,99109.37
2018-02-04T07:03:30.813Z,99119.97
2018-02-04T07:05:58.272Z,99117.80
2018-02-04T07:08:25.732Z,99121.58
2018-02-04T07:10:53.246Z,99124.14
2018-02-04T07:13:20.709Z,99133.44
2018-02-04T07:15:48.160Z,99135.97
2018-02-04T07:18:15.624Z,99137.27
2018-02-04T07:20:43.090Z,99142.34
2018-02-04T07:23:10.567Z,99150.79
2018-02-04T07:25:38.075Z,99158.83
2018-02-04T07:28:05.576Z,99165.20
2018-02-04T07:30:33.042Z,99174.07
2018-02-04T07:33:00.503Z,99179.13
2018-02-04T07:35:28.016Z,99182.10
2018-02-04T07:37:55.496Z,99182.45
2018-02-04T07:40:22.997Z,99183.30
2018-02-04T07:42:50.464Z,99191.33
2018-02-04T07:45:17.952Z,99196.82
2018-02-04T07:47:45.426Z,99204.03
2018-02-04T07:50:12.928Z,99203.59
2018-02-04T07:52:40.396Z,99213.27
2018-02-04T07:55:07.872Z,99213.69
2018-02-04T07:57:35.381Z,99206.39
2018-02-04T08:00:02.902Z,99212.34
2018-02-04T08:02:30.368Z,99207.31
2018-02-04T08:04:57.821Z,99211.50
2018-02-04T08:07:25.289Z,99213.25
2018-02-04T08:09:52.760Z,99214.52
2018-02-04T08:12:20.214Z,99221.23
2018-02-04T08:14:47.721Z,99223.72
2018-02-04T08:17:15.200Z,99225.16
2018-02-04T08:19:42.644Z,99228.98
2018-02-04T08:22:10.101Z,99229.50
2018-02-04T08:24:37.653Z,99232.50
2018-02-04T08:27:05.089Z,99232.99
2018-02-04T08:29:32.537Z,99234.77
2018-02-04T08:32:00.016Z,99235.62
2018-02-04T08:34:27.518Z,99240.72
2018-02-04T08:36:54.987Z,99239.95
2018-02-04T08:39:22.478Z,99238.73
2018-02-04T08:41:49.951Z,99253.94
2018-02-04T08:44:17.421Z,99253.06
2018-02-04T08:46:44.919Z,99264.91
2018-02-04T08:49:12.378Z,99256.42
2018-02-04T08:51:39.840Z,99253.97
2018-02-04T08:54:07.392Z,99262.45
2018-02-04T08:56:34.846Z,99260.37
2018-02-04T08:59:02.328Z,99262.05
2018-02-04T09:01:29.793Z,99266.29
2018-02-04T09:03:57.253Z,99261.61
2018-02-04T09:06:24.755Z,99267.50
2018-02-04T09:08:52.237Z,99270.49
2018-02-04T09:11:19.698Z,99277.69
2018-02-04T09:13:47.278Z,99274.73
2018-02-04T09:16:14.790Z,99287.42
2018-02-04T09:18:42.262Z,99280.23
2018-02-04T09:21:09.802Z,99284.05
2018-02-04T09:23:37.274Z,99295.48
2018-02-04T09:26:04.784Z,99304.36
2018-02-04T09:28:32.371Z,99321.71
2018-02-04T09:30:59.819Z,99330.94
2018-02-04T09:33:27.314Z,99333.89
2018-02-04T09:35:54.763Z,99338.50
2018-02-04T09:38:22.199Z,99347.42
2018-02-04T09:40:49.711Z,99336.87
2018-02-04T09:43:17.254Z,99342.38
2018-02-04T09:45:44.707Z,99344.50
2018-02-04T09:48:12.181Z,99347.82
2018-02-04T09:50:39.702Z,99347.27
2018-02-04T09:53:07.187Z,99350.67
2018-02-04T09:55:34.659Z,99354.03
2018-02-04T09:58:02.115Z,99343.49
2018-02-04T10:00:29.592Z,99343.91
2018-02-04T10:02:57.067Z,99351.00
2018-02-04T10:05:24.545Z,99350.52
2018-02-04T10:07:52.071Z,99350.66
2018-02-04T10:10:19.534Z,99348.61
2018-02-04T10:12:46.998Z,99348.69
2018-02-04T10:15:14.471Z,99344.42
2018-02-04T10:17:41.997Z,99350.41
2018-02-04T10:20:09.666Z,99347.06
2018-02-04T10:22:37.136Z,99351.33
2018-02-04T10:25:04.587Z,99358.09
2018-02-04T10:27:32.048Z,99361.88
2018-02-04T10:29:59.567Z,99357.61
2018-02-04T10:32:27.074Z,99360.20
2018-02-04T10:34:54.563Z,99361.92
2018-02-04T10:37:22.019Z,99370.78
2018-02-04T10:39:49.524Z,99374.16
2018-02-04T10:42:17.103Z,99369.95
2018-02-04T10:44:44.575Z,99380.12
2018-02-04T10:47:12.004Z,99375.90
2018-02-04T10:49:39.471Z,99372.50
2018-02-04T10:52:06.935Z,99371.67
2018-02-04T10:54:34.415Z,99369.56
2018-02-04T10:57:01.940Z,99375.45
2018-02-04T10:59:29.437Z,99380.14
2018-02-04T11:01:56.942Z,99385.64
2018-02-04T11:04:24.431Z,99386.46
2018-02-04T11:06:51.882Z,99380.11
2018-02-04T11:09:19.346Z,99374.59
2018-02-04T11:11:46.829Z,99377.97
2018-02-04T11:14:14.296Z,99378.82
2018-02-04T11:16:41.777Z,99385.96
2018-02-04T11:19:09.248Z,99391.84
2018-02-04T11:21:36.699Z,99393.95
2018-02-04T11:24:04.170Z,99398.09
2018-02-04T11:26:31.637Z,99386.72
2018-02-04T11:28:59.096Z,99388.06
2018-02-04T11:31:26.626Z,99391.08
2018-02-04T11:33:54.129Z,99394.04
2018-02-04T11:36:21.606Z,99396.98
2018-02-04T11:38:49.082Z,99397.36
2018-02-04T11:41:16.744Z,99407.95
2018-02-04T11:43:44.230Z,99407.96
2018-02-04T11:46:11.709Z,99404.57
2018-02-04T11:48:39.170Z,99405.01
2018-02-04T11:51:06.644Z,99406.67
2018-02-04T11:53:34.095Z,99408.42
2018-02-04T11:56:01.559Z,99407.58
2018-02-04T11:58:29.102Z,99409.32
2018-02-04T12:00:56.627Z,99411.42
2018-02-04T12:03:24.107Z,99408.47
2018-02-04T12:05:51.575Z,99419.51
2018-02-04T12:08:19.060Z,99412.32
2018-02-04T12:10:46.569Z,99414.86
2018-02-04T12:13:14.010Z,99413.13
2018-02-04T12:15:41.460Z,99413.06
2018-02-04T12:18:08.928Z,99418.05
2018-02-04T12:20:36.371Z,99414.91
2018-02-04T12:23:03.929Z,99409.85
2018-02-04T12:25:31.388Z,99420.84
2018-02-04T12:27:59.008Z,99417.92
2018-02-04T12:30:26.480Z,99432.50
2018-02-04T12:32:53.932Z,99427.04
2018-02-04T12:35:21.454Z,99422.41
2018-02-04T12:37:48.902Z,99419.86
2018-02-04T12:40:16.384Z,99433.88
2018-02-04T12:42:43.843Z,99432.19
2018-02-04T12:45:11.288Z,99435.56
2018-02-04T12:47:38.827Z,99458.45
2018-02-04T12:50:06.283Z,99463.52
2018-02-04T12:52:33.753Z,99481.16
2018-02-04T12:55:01.271Z,99469.19
2018-02-04T12:57:28.744Z,99478.45
2018-02-04T12:59:56.210Z,99476.30
2018-02-04T13:02:23.680Z,99476.74
2018-02-04T13:04:51.148Z,99476.75
2018-02-04T13:07:18.589Z,99473.35
2018-02-04T13:09:46.071Z,99472.50
2018-02-04T13:12:13.557Z,99477.69
2018-02-04T13:14:41.036Z,99476.91
2018-02-04T13:17:08.541Z,99484.97
2018-02-04T13:19:35.990Z,99483.76
2018-02-04T13:22:03.486Z,99485.87
2018-02-04T13:24:30.967Z,99488.40
2018-02-04T13:26:58.498Z,99501.86
2018-02-04T13:29:26.074Z,99503.92
2018-02-04T13:31:53.631Z,99495.86
2018-02-04T13:34:21.147Z,99505.97
2018-02-04T13:36:48.691Z,99500.92
2018-02-04T13:39:16.331Z,99499.67
2018-02-04T13:41:43.868Z,99498.08
2018-02-04T13:44:11.409Z,99501.16
2018-02-04T13:46:38.865Z,99502.04
2018-02-04T13:49:06.316Z,99511.82
2018-02-04T13:51:33.775Z,99504.59
2018-02-04T13:54:01.250Z,99514.33
2018-02-04T13:56:28.719Z,99512.66
2018-02-04T13:58:56.150Z,99517.72
2018-02-04T14:01:23.587Z,99518.56
2018-02-04T14:03:51.174Z,99529.18
2018-02-04T14:06:18.610Z,99528.33
2018-02-04T14:08:46.067Z,99533.01
2018-02-04T14:11:13.535Z,99531.75
2018-02-04T14:13:41.079Z,99537.66
2018-02-04T14:16:08.546Z,99546.13
2018-02-04T14:18:36.009Z,99557.52
2018-02-04T14:21:03.526Z,99564.06
2018-02-04T14:23:30.967Z,99569.13
2018-02-04T14:25:58.658Z,99567.37
2018-02-04T14:28:26.139Z,99577.73
2018-02-04T14:30:53.624Z,99595.17
2018-02-04T14:33:21.095Z,99600.50
2018-02-04T14:35:48.589Z,99599.86
2018-02-04T14:38:16.070Z,99596.37
2018-02-04T14:40:43.537Z,99598.98
2018-02-04T14:43:11.013Z,99595.53
2018-02-04T14:45:38.493Z,99597.65
2018-02-04T14:48:06.079Z,99592.59
2018-02-04T14:50:33.535Z,99594.76
2018-02-04T14:53:01.026Z,99598.98
2018-02-04T14:55:28.539Z,99597.84
2018-02-04T14:57:56.038Z,99597.94
2018-02-04T15:00:23.532Z,99598.89
2018-02-04T15:02:50.975Z,99604.17
2018-02-04T15:05:18.435Z,99603.93
2018-02-04T15:07:45.900Z,99614.02
2018-02-04T15:10:13.371Z,99630.30
2018-02-04T15:12:40.817Z,99624.20
2018-02-04T15:15:08.268Z,99616.80
2018-02-04T15:17:35.722Z,99622.83
2018-02-04T15:20:03.265Z,99619.65
2018-02-04T15:22:30.806Z,99623.23
2018-02-04T15:24:58.250Z,99624.16
2018-02-04T15:27:25.711Z,99633.88
2018-02-04T15:29:53.180Z,99632.53
2018-02-04T15:32:20.640Z,99641.04
2018-02-04T15:34:48.136Z,99635.56
2018-02-04T15:37:15.606Z,99645.67
2018-02-04T15:39:43.064Z,99645.50
2018-02-04T15:42:10.577Z,99647.42
2018-02-04T15:44:40.111Z,99649.33
2018-02-04T15:47:07.707Z,99655.71
2018-02-04T15:49:35.158Z,99661.39
2018-02-04T15:52:02.712Z,99659.19
2018-02-04T15:54:30.162Z,99662.97
2018-02-04T15:56:57.626Z,99670.36
2018-02-04T15:59:25.098Z,99668.18
2018-02-04T16:01:52.576Z,99674.31
2018-02-04T16:04:20.031Z,99675.41
2018-02-04T16:06:47.491Z,99675.70
2018-02-04T16:09:14.986Z,99678.05
2018-02-04T16:11:42.517Z,99686.02
2018-02-04T16:14:09.998Z,99693.09
2018-02-04T16:16:37.510Z,99696.42
2018-02-04T16:19:05.017Z,99700.84
2018-02-04T16:21:32.503Z,99701.36
2018-02-04T16:24:00.107Z,99708.03
2018-02-04T16:26:27.596Z,99704.23
2018-02-04T16:28:55.058Z,99710.13
2018-02-04T16:31:22.536Z,99716.00
2018-02-04T16:33:50.000Z,99713.92
2018-02-04T16:36:17.503Z,99712.37
2018-02-04T16:38:44.989Z,99721.28
2018-02-04T16:41:12.449Z,99720.70
2018-02-04T16:43:39.979Z,99729.52
2018-02-04T16:46:07.484Z,99729.04
2018-02-04T16:48:34.970Z,99732.77
2018-02-04T16:51:02.504Z,99726.71
2018-02-04T16:53:29.999Z,99739.72
2018-02-04T16:55:57.484Z,99745.66
2018-02-04T16:58:25.027Z,99746.12
2018-02-04T17:00:52.680Z,99748.77
2018-02-04T17:03:20.137Z,99758.45
2018-02-04T17:05:47.636Z,99758.08
2018-02-04T17:08:15.156Z,99766.17
2018-02-04T17:10:42.640Z,99764.69
2018-02-04T17:13:10.138Z,99772.61
2018-02-04T17:15:37.610Z,99768.66
2018-02-04T17:18:05.110Z,99777.48
2018-02-04T17:20:32.588Z,99782.51
2018-02-04T17:23:00.079Z,99788.77
2018-02-04T17:25:27.554Z,99785.66
2018-02-04T17:27:55.036Z,99788.25
2018-02-04T17:30:22.562Z,99796.88
2018-02-04T17:32:50.067Z,99793.20
2018-02-04T17:35:17.578Z,99797.26
2018-02-04T17:37:45.061Z,99809.89
2018-02-04T17:40:12.546Z,99817.27
2018-02-04T17:42:40.033Z,99812.83
2018-02-04T17:45:07.556Z,99815.52
2018-02-04T17:47:35.070Z,99813.36
2018-02-04T17:50:03.551Z,99815.39
2018-02-04T17:52:31.102Z,99826.19
2018-02-04T17:54:58.636Z,99822.85
2018-02-04T17:57:26.111Z,99822.87
2018-02-04T17:59:53.662Z,99831.92
2018-02-04T18:02:21.143Z,99832.81
2018-02-04T18:04:48.620Z,99830.17
2018-02-04T18:07:16.211Z,99839.17
2018-02-04T18:09:43.720Z,99844.67
2018-02-04T18:12:11.249Z,99843.30
2018-02-04T18:14:38.736Z,99849.67
2018-02-04T18:17:06.255Z,99855.02
2018-02-04T18:19:33.732Z,99855.44
2018-02-04T18:22:01.297Z,99854.91
2018-02-04T18:24:28.831Z,99863.90
2018-02-04T18:26:56.347Z,99859.30
2018-02-04T18:29:23.803Z,99864.87
2018-02-04T18:31:51.280Z,99873.13
2018-02-04T18:34:18.772Z,99868.64
2018-02-04T18:36:46.267Z,99872.23
2018-02-04T18:39:13.777Z,99873.79
2018-02-04T18:41:41.266Z,99872.73
2018-02-04T18:44:08.746Z,99875.31
2018-02-04T18:46:36.297Z,99884.24
2018-02-04T18:49:04.569Z,99886.16
2018-02-04T18:51:32.388Z,99888.14
2018-02-04T18:53:59.879Z,99889.30
2018-02-04T18:56:27.510Z,99890.82
2018-02-04T18:58:55.071Z,99890.14
2018-02-04T19:01:22.568Z,99898.16
2018-02-04T19:03:50.044Z,99898.70
2018-02-04T19:06:17.501Z,99904.32
2018-02-04T19:08:45.058Z,99902.37
2018-02-04T19:11:12.530Z,99905.45
2018-02-04T19:13:40.047Z,99898.80
2018-02-04T19:16:07.568Z,99901.80
2018-02-04T19:18:35.130Z,99902.41
2018-02-04T19:21:03.126Z,99904.84
2018-02-04T19:23:30.624Z,99900.92
2018-02-04T19:25:58.105Z,99907.40
2018-02-04T19:28:25.597Z,99906.38
2018-02-04T19:30:53.088Z,99909.80
2018-02-04T19:33:20.610Z,99914.23
2018-02-04T19:35:48.109Z,99911.50
2018-02-04T19:38:15.608Z,99922.71
2018-02-04T19:40:43.778Z,99929.12
2018-02-04T19:43:11.275Z,99928.94
2018-02-04T19:45:38.918Z,99928.40
2018-02-04T19:48:06.479Z,99933.63
2018-02-04T19:50:34.010Z,99936.15
2018-02-04T19:53:01.505Z,99942.39
2018-02-04T19:55:29.034Z,99941.44
2018-02-04T19:57:56.560Z,99945.39
2018-02-04T20:00:24.154Z,99946.10
2018-02-04T20:02:51.854Z,99946.97
2018-02-04T20:05:19.573Z,99951.20
2018-02-04T20:07:47.323Z,99943.41
2018-02-04T20:10:15.060Z,99955.66
2018-02-04T20:12:42.581Z,99947.02
2018-02-04T20:15:10.091Z,99950.30
2018-02-04T20:17:37.635Z,99953.80
2018-02-04T20:20:05.184Z,99951.03
2018-02-04T20:22:32.818Z,99959.11
2018-02-04T20:25:00.387Z,99954.82
2018-02-04T20:27:28.093Z,99961.38
2018-02-04T20:29:55.588Z,99959.78
2018-02-04T20:32:35.137Z,99968.46
2018-02-04T20:35:02.812Z,99966.95
2018-02-04T20:37:30.535Z,99971.03
2018-02-04T20:39:58.281Z,99976.69
2018-02-04T20:42:25.778Z,99977.42
2018-02-04T20:44:53.259Z,99978.94
2018-02-04T20:47:20.908Z,99980.58
2018-02-04T20:49:48.587Z,99981.53
2018-02-04T20:52:16.229Z,99981.06
2018-02-04T20:54:43.768Z,99985.25
2018-02-04T20:57:11.302Z,99980.63
2018-02-04T20:59:38.772Z,99981.74
2018-02-04T21:02:06.245Z,99980.14
2018-02-04T21:04:33.774Z,99981.95
2018-02-04T21:07:01.275Z,99976.27
2018-02-04T21:09:28.839Z,99988.88
2018-02-04T21:11:56.373Z,99980.61
2018-02-04T21:14:23.875Z,99988.86
2018-02-04T21:16:51.459Z,99991.58
2018-02-04T21:19:18.977Z,99982.42
2018-02-04T21:21:46.466Z,99991.08
2018-02-04T21:24:13.967Z,99987.76
2018-02-04T21:26:41.557Z,99995.73
2018-02-04T21:29:09.029Z,100001.08
2018-02-04T21:31:36.519Z,99997.38
2018-02-04T21:34:04.073Z,100009.08
2018-02-04T21:36:31.630Z,100002.36
2018-02-04T21:38:59.360Z,100013.70
2018-02-04T21:41:26.840Z,100010.93
2018-02-04T21:43:54.329Z,100020.36
2018-02-04T21:46:21.831Z,100021.64
2018-02-04T21:48:49.377Z,100020.92
2018-02-04T21:51:17.089Z,100017.85
2018-02-04T21:53:44.625Z,100024.41
2018-02-04T21:56:12.091Z,100030.72
2018-02-04T21:58:39.618Z,100030.20
2018-02-04T22:01:07.094Z,100033.66
2018-02-04T22:03:34.635Z,100047.37
2018-02-04T22:06:02.130Z,100033.91
2018-02-04T22:08:29.589Z,100048.62
2018-02-04T22:10:57.141Z,100044.01
2018-02-04T22:13:24.642Z,100042.59
2018-02-04T22:15:52.157Z,100050.86
2018-02-04T22:18:19.683Z,100049.11
2018-02-04T22:20:47.209Z,100047.24
2018-02-04T22:23:14.753Z,100054.29
2018-02-04T22:25:42.242Z,100048.84
2018-02-04T22:28:09.739Z,100054.49
2018-02-04T22:30:37.232Z,100051.52
2018-02-04T22:33:04.754Z,100063.52
2018-02-04T22:35:32.280Z,100064.47
2018-02-04T22:37:59.812Z,100068.42
2018-02-04T22:40:27.353Z,100067.56
2018-02-04T22:42:54.867Z,100070.98
2018-02-04T22:45:22.355Z,100072.06
2018-02-04T22:47:49.868Z,100072.52
2018-02-04T22:50:17.399Z,100075.25
2018-02-04T22:52:45.050Z,100078.59
2018-02-04T22:55:12.787Z,100080.83
2018-02-04T22:57:40.362Z,100087.28
2018-02-04T23:00:07.852Z,100085.65
2018-02-04T23:02:35.331Z,100087.63
2018-02-04T23:05:02.882Z,100092.58
2018-02-04T23:07:30.400Z,100095.48
2018-02-04T23:09:57.880Z,100096.28
2018-02-04T23:12:25.408Z,100097.52
2018-02-04T23:14:52.933Z,100101.60
2018-02-04T23:17:20.412Z,100100.46
2018-02-04T23:19:48.024Z,100097.51
2018-02-04T23:22:16.315Z,100099.62
2018-02-04T23:24:43.845Z,100102.92
2018-02-04T23:27:11.339Z,100105.02
2018-02-04T23:29:38.808Z,100102.83
2018-02-04T23:32:06.343Z,100108.64
2018-02-04T23:34:34.498Z,100116.41
2018-02-04T23:37:01.994Z,100123.18
2018-02-04T23:39:29.556Z,100120.20
2018-02-04T23:41:57.057Z,100126.75
2018-02-04T23:44:24.553Z,100126.93
2018-02-04T23:46:52.031Z,100129.27
2018-02-04T23:49:19.627Z,100130.95
2018-02-04T23:51:48.817Z,100131.36
2018-02-04T23:54:16.323Z,100130.74
2018-02-04T23:56:43.840Z,100135.05
2018-02-04T23:59:11.412Z,100141.16
